Sheridan, MI (48884)

1:36 AM EDT on June 30, 2015 (GMT -0400)
East Boyer Road, Fenwick | | Change Station
CLOSE
Current Station
Personal Weather Station
Location: Fenwick, MI
Elevation: 810 ft
Nearby Weather Stations

Elev 810 ft 43.17 °N, 85.04 °W | Updated 4 minutes ago

Clear
Clear
56.8 °F
Feels Like 56.8 °F
N
0.0
Wind Variable Wind from North
Gusts 0.0 mph

Today
High -- | Low -- °F
--% Chance of Precip.
Yesterday
High -- | Low -- °F
Precip. -- in
6:03 AM 9:24 PM
Waxing Gibbous, 96% visible
Pressure 29.81 in
Visibility 10.0 miles
Clouds Clear
Dew Point 50 °F
Humidity 79%
Rainfall in
Snow Depth Not available.
UV 0 out of 12
Pollen 4.50 out of 12
Air Quality Not available.
Flu Activity Sporadic
METAR KY70 300513Z AUTO 00000KT 10SM CLR 15/14 A2981 RMK AO2 T01450140

More Conditions Fewer Conditions

Pressure 29.81 in
Visibility 10.0 miles
Clouds Clear
Dew Point 50 °F
Humidity 79%
Rainfall in
Snow Depth Not available.
UV 0 out of 12
Pollen 4.50 out of 12
Air Quality Not available.
Flu Activity Sporadic
METAR KY70 300513Z AUTO 00000KT 10SM CLR 15/14 A2981 RMK AO2 T01450140

More Conditions Fewer Conditions

10-Day Weather Forecast

×

Almanac

Astronomy

Jun. 30, 2015 Rise Set
Actual Time
Civil Twilight
Nautical Twilight
Astronomical Twilight
Moon
Length of Visible Light
Length of Day
Tomorrow will be .
, % of the Moon is Illuminated

Today's Extremes

State Highs State Lows

Community

WunderPhotos

Upload Photos

1,833,970 photos uploaded!

WunderBlogs® & News

Nearby

Air Quality

  Air Quality AQ Index Pollutant
Not available.

Snow Depth

Station Depth Elevation

Earthquake Activity

City Distance Mag. Time & Date
Minimum magnitude displayed is 2.5.

Coastal Water Temperatures

Place Temperature

Stations

Nearby Weather Stations

Station Location Temp. Windchill Dew Point Humidity Wind Precip. Elev Updated Type